sensor_id;sensor_type;location;lat;lon;timestamp;P1;durP1;ratioP1;P2;durP2;ratioP2
22531;SDS011;11432;46.924;7.114;2024-03-02T00:02:01;4.97;;;3.25;;
22531;SDS011;11432;46.924;7.114;2024-03-02T00:04:27;6.10;;;3.38;;
22531;SDS011;11432;46.924;7.114;2024-03-02T00:06:52;7.40;;;3.58;;
22531;SDS011;11432;46.924;7.114;2024-03-02T00:09:21;4.10;;;2.73;;
22531;SDS011;11432;46.924;7.114;2024-03-02T00:11:46;4.43;;;3.00;;
22531;SDS011;11432;46.924;7.114;2024-03-02T00:14:12;5.97;;;3.30;;
22531;SDS011;11432;46.924;7.114;2024-03-02T00:16:38;5.53;;;2.92;;
22531;SDS011;11432;46.924;7.114;2024-03-02T00:19:03;5.68;;;3.45;;
22531;SDS011;11432;46.924;7.114;2024-03-02T00:21:31;5.38;;;3.20;;
22531;SDS011;11432;46.924;7.114;2024-03-02T00:23:58;4.88;;;2.90;;
22531;SDS011;11432;46.924;7.114;2024-03-02T00:26:24;4.68;;;3.15;;
22531;SDS011;11432;46.924;7.114;2024-03-02T00:28:50;5.93;;;3.15;;
22531;SDS011;11432;46.924;7.114;2024-03-02T00:31:22;5.57;;;3.17;;
22531;SDS011;11432;46.924;7.114;2024-03-02T00:33:48;6.07;;;3.38;;
22531;SDS011;11432;46.924;7.114;2024-03-02T00:36:21;4.53;;;3.08;;
22531;SDS011;11432;46.924;7.114;2024-03-02T00:38:50;6.80;;;3.45;;
22531;SDS011;11432;46.924;7.114;2024-03-02T00:41:29;4.50;;;2.85;;
22531;SDS011;11432;46.924;7.114;2024-03-02T00:44:02;3.78;;;2.80;;
22531;SDS011;11432;46.924;7.114;2024-03-02T00:46:33;5.05;;;2.70;;
22531;SDS011;11432;46.924;7.114;2024-03-02T00:51:49;4.22;;;2.85;;
22531;SDS011;11432;46.924;7.114;2024-03-02T00:54:19;5.57;;;3.03;;
22531;SDS011;11432;46.924;7.114;2024-03-02T00:56:49;4.25;;;3.08;;
22531;SDS011;11432;46.924;7.114;2024-03-02T00:59:15;5.22;;;3.10;;
22531;SDS011;11432;46.924;7.114;2024-03-02T01:01:41;4.03;;;2.80;;
22531;SDS011;11432;46.924;7.114;2024-03-02T01:04:07;5.53;;;2.90;;
22531;SDS011;11432;46.924;7.114;2024-03-02T01:06:34;4.25;;;2.70;;
22531;SDS011;11432;46.924;7.114;2024-03-02T01:09:00;3.40;;;2.63;;
22531;SDS011;11432;46.924;7.114;2024-03-02T01:11:26;4.40;;;2.88;;
22531;SDS011;11432;46.924;7.114;2024-03-02T01:13:51;4.07;;;2.72;;
22531;SDS011;11432;46.924;7.114;2024-03-02T01:16:17;4.18;;;2.67;;
22531;SDS011;11432;46.924;7.114;2024-03-02T01:18:43;7.68;;;2.70;;
22531;SDS011;11432;46.924;7.114;2024-03-02T01:21:08;4.40;;;2.55;;
22531;SDS011;11432;46.924;7.114;2024-03-02T01:23:34;5.05;;;3.17;;
22531;SDS011;11432;46.924;7.114;2024-03-02T01:26:00;3.45;;;2.35;;
22531;SDS011;11432;46.924;7.114;2024-03-02T01:28:25;5.63;;;3.40;;
22531;SDS011;11432;46.924;7.114;2024-03-02T01:30:51;5.00;;;2.78;;
22531;SDS011;11432;46.924;7.114;2024-03-02T01:33:16;4.15;;;2.63;;
22531;SDS011;11432;46.924;7.114;2024-03-02T01:35:43;6.00;;;3.05;;
22531;SDS011;11432;46.924;7.114;2024-03-02T01:38:08;3.30;;;2.40;;
22531;SDS011;11432;46.924;7.114;2024-03-02T01:40:34;5.45;;;2.70;;
22531;SDS011;11432;46.924;7.114;2024-03-02T01:43:01;3.55;;;2.50;;
22531;SDS011;11432;46.924;7.114;2024-03-02T01:45:27;5.13;;;3.00;;
22531;SDS011;11432;46.924;7.114;2024-03-02T01:47:53;2.92;;;2.40;;
22531;SDS011;11432;46.924;7.114;2024-03-02T01:50:28;3.72;;;2.58;;
22531;SDS011;11432;46.924;7.114;2024-03-02T01:52:56;3.55;;;2.40;;
22531;SDS011;11432;46.924;7.114;2024-03-02T01:55:21;3.97;;;2.55;;
22531;SDS011;11432;46.924;7.114;2024-03-02T01:57:48;3.33;;;2.38;;
22531;SDS011;11432;46.924;7.114;2024-03-02T02:00:16;4.75;;;3.10;;
22531;SDS011;11432;46.924;7.114;2024-03-02T02:02:42;4.03;;;2.70;;
22531;SDS011;11432;46.924;7.114;2024-03-02T02:05:08;3.47;;;2.50;;
22531;SDS011;11432;46.924;7.114;2024-03-02T02:07:34;4.85;;;2.40;;
22531;SDS011;11432;46.924;7.114;2024-03-02T02:10:00;3.60;;;2.42;;
22531;SDS011;11432;46.924;7.114;2024-03-02T02:12:26;4.95;;;2.70;;
22531;SDS011;11432;46.924;7.114;2024-03-02T02:14:51;4.45;;;2.53;;
22531;SDS011;11432;46.924;7.114;2024-03-02T02:17:17;5.18;;;2.58;;
22531;SDS011;11432;46.924;7.114;2024-03-02T02:19:43;4.32;;;2.60;;
22531;SDS011;11432;46.924;7.114;2024-03-02T02:22:11;3.78;;;2.13;;
22531;SDS011;11432;46.924;7.114;2024-03-02T02:24:40;3.70;;;2.50;;
22531;SDS011;11432;46.924;7.114;2024-03-02T02:29:32;3.70;;;2.20;;
22531;SDS011;11432;46.924;7.114;2024-03-02T02:31:58;3.83;;;2.13;;
22531;SDS011;11432;46.924;7.114;2024-03-02T02:34:23;3.92;;;2.15;;
22531;SDS011;11432;46.924;7.114;2024-03-02T02:36:49;3.75;;;2.35;;
22531;SDS011;11432;46.924;7.114;2024-03-02T02:39:15;3.03;;;2.10;;
22531;SDS011;11432;46.924;7.114;2024-03-02T02:41:42;4.90;;;2.30;;
22531;SDS011;11432;46.924;7.114;2024-03-02T02:44:08;4.45;;;2.42;;
22531;SDS011;11432;46.924;7.114;2024-03-02T02:46:36;2.90;;;2.13;;
22531;SDS011;11432;46.924;7.114;2024-03-02T02:49:03;2.53;;;1.67;;
22531;SDS011;11432;46.924;7.114;2024-03-02T02:51:28;3.00;;;2.13;;
22531;SDS011;11432;46.924;7.114;2024-03-02T02:53:54;3.70;;;2.30;;
22531;SDS011;11432;46.924;7.114;2024-03-02T02:56:19;3.83;;;2.30;;
22531;SDS011;11432;46.924;7.114;2024-03-02T02:58:45;3.97;;;2.20;;
22531;SDS011;11432;46.924;7.114;2024-03-02T03:01:10;3.08;;;1.85;;
22531;SDS011;11432;46.924;7.114;2024-03-02T03:03:36;3.88;;;2.53;;
22531;SDS011;11432;46.924;7.114;2024-03-02T03:06:02;3.28;;;2.38;;
22531;SDS011;11432;46.924;7.114;2024-03-02T03:08:27;3.40;;;2.03;;
22531;SDS011;11432;46.924;7.114;2024-03-02T03:10:53;4.00;;;2.05;;
22531;SDS011;11432;46.924;7.114;2024-03-02T03:13:19;3.35;;;2.22;;
22531;SDS011;11432;46.924;7.114;2024-03-02T03:15:45;3.20;;;2.20;;
22531;SDS011;11432;46.924;7.114;2024-03-02T03:18:10;2.83;;;2.13;;
22531;SDS011;11432;46.924;7.114;2024-03-02T03:20:36;3.85;;;2.30;;
22531;SDS011;11432;46.924;7.114;2024-03-02T03:23:02;5.25;;;2.33;;
22531;SDS011;11432;46.924;7.114;2024-03-02T03:25:29;4.32;;;2.35;;
22531;SDS011;11432;46.924;7.114;2024-03-02T03:27:55;3.50;;;2.40;;
22531;SDS011;11432;46.924;7.114;2024-03-02T03:30:20;4.28;;;2.65;;
22531;SDS011;11432;46.924;7.114;2024-03-02T03:32:46;4.82;;;2.65;;
22531;SDS011;11432;46.924;7.114;2024-03-02T03:35:13;4.30;;;2.25;;
22531;SDS011;11432;46.924;7.114;2024-03-02T03:37:40;3.55;;;2.13;;
22531;SDS011;11432;46.924;7.114;2024-03-02T03:40:06;7.68;;;3.10;;
22531;SDS011;11432;46.924;7.114;2024-03-02T03:42:35;4.43;;;2.53;;
22531;SDS011;11432;46.924;7.114;2024-03-02T03:45:01;4.45;;;2.65;;
22531;SDS011;11432;46.924;7.114;2024-03-02T03:47:27;3.58;;;2.30;;
22531;SDS011;11432;46.924;7.114;2024-03-02T03:49:52;5.20;;;2.03;;
22531;SDS011;11432;46.924;7.114;2024-03-02T03:52:18;3.05;;;1.88;;
22531;SDS011;11432;46.924;7.114;2024-03-02T03:54:43;7.15;;;2.17;;
22531;SDS011;11432;46.924;7.114;2024-03-02T03:57:09;4.03;;;2.08;;
22531;SDS011;11432;46.924;7.114;2024-03-02T03:59:35;2.80;;;1.98;;
22531;SDS011;11432;46.924;7.114;2024-03-02T04:02:02;4.22;;;2.05;;
22531;SDS011;11432;46.924;7.114;2024-03-02T04:04:28;2.60;;;1.90;;
22531;SDS011;11432;46.924;7.114;2024-03-02T04:06:54;2.90;;;1.90;;
22531;SDS011;11432;46.924;7.114;2024-03-02T04:09:19;3.63;;;1.90;;
22531;SDS011;11432;46.924;7.114;2024-03-02T04:11:45;2.47;;;1.52;;
22531;SDS011;11432;46.924;7.114;2024-03-02T04:14:11;3.40;;;2.00;;
22531;SDS011;11432;46.924;7.114;2024-03-02T04:16:37;2.35;;;1.60;;
22531;SDS011;11432;46.924;7.114;2024-03-02T04:19:04;2.65;;;1.88;;
22531;SDS011;11432;46.924;7.114;2024-03-02T04:21:30;2.72;;;1.70;;
22531;SDS011;11432;46.924;7.114;2024-03-02T04:23:55;4.03;;;1.55;;
22531;SDS011;11432;46.924;7.114;2024-03-02T04:26:23;4.25;;;1.73;;
22531;SDS011;11432;46.924;7.114;2024-03-02T04:28:50;2.30;;;1.73;;
22531;SDS011;11432;46.924;7.114;2024-03-02T04:31:16;2.83;;;1.80;;
22531;SDS011;11432;46.924;7.114;2024-03-02T04:33:42;3.83;;;1.58;;
22531;SDS011;11432;46.924;7.114;2024-03-02T04:36:08;3.33;;;1.38;;
22531;SDS011;11432;46.924;7.114;2024-03-02T04:38:34;2.95;;;1.70;;
22531;SDS011;11432;46.924;7.114;2024-03-02T04:41:00;2.47;;;1.60;;
22531;SDS011;11432;46.924;7.114;2024-03-02T04:43:26;2.75;;;1.40;;
22531;SDS011;11432;46.924;7.114;2024-03-02T04:45:51;2.00;;;1.30;;
22531;SDS011;11432;46.924;7.114;2024-03-02T04:48:17;2.20;;;1.50;;
22531;SDS011;11432;46.924;7.114;2024-03-02T04:50:44;4.30;;;1.38;;
22531;SDS011;11432;46.924;7.114;2024-03-02T04:53:10;2.67;;;1.42;;
22531;SDS011;11432;46.924;7.114;2024-03-02T04:55:35;1.77;;;1.20;;
22531;SDS011;11432;46.924;7.114;2024-03-02T04:58:04;1.80;;;1.50;;
22531;SDS011;11432;46.924;7.114;2024-03-02T05:00:30;2.35;;;1.30;;
22531;SDS011;11432;46.924;7.114;2024-03-02T05:02:56;3.75;;;1.40;;
22531;SDS011;11432;46.924;7.114;2024-03-02T05:05:21;2.00;;;1.30;;
22531;SDS011;11432;46.924;7.114;2024-03-02T05:07:47;2.72;;;1.50;;
22531;SDS011;11432;46.924;7.114;2024-03-02T05:10:13;2.40;;;1.30;;
22531;SDS011;11432;46.924;7.114;2024-03-02T05:12:39;1.55;;;1.20;;
22531;SDS011;11432;46.924;7.114;2024-03-02T05:15:07;2.42;;;1.30;;
22531;SDS011;11432;46.924;7.114;2024-03-02T05:17:35;2.28;;;1.25;;
22531;SDS011;11432;46.924;7.114;2024-03-02T05:20:01;3.38;;;1.30;;
22531;SDS011;11432;46.924;7.114;2024-03-02T05:22:27;1.90;;;1.27;;
22531;SDS011;11432;46.924;7.114;2024-03-02T05:24:52;1.90;;;1.05;;
22531;SDS011;11432;46.924;7.114;2024-03-02T05:27:18;2.63;;;1.40;;
22531;SDS011;11432;46.924;7.114;2024-03-02T05:29:43;2.58;;;1.40;;
22531;SDS011;11432;46.924;7.114;2024-03-02T05:32:09;2.90;;;1.30;;
22531;SDS011;11432;46.924;7.114;2024-03-02T05:34:34;1.95;;;1.40;;
22531;SDS011;11432;46.924;7.114;2024-03-02T05:37:00;1.88;;;1.40;;
22531;SDS011;11432;46.924;7.114;2024-03-02T05:39:26;1.77;;;1.38;;
22531;SDS011;11432;46.924;7.114;2024-03-02T05:41:52;1.92;;;1.40;;
22531;SDS011;11432;46.924;7.114;2024-03-02T05:44:17;1.70;;;1.30;;
22531;SDS011;11432;46.924;7.114;2024-03-02T05:46:44;2.00;;;1.10;;
22531;SDS011;11432;46.924;7.114;2024-03-02T05:49:10;3.47;;;1.48;;
22531;SDS011;11432;46.924;7.114;2024-03-02T05:51:36;2.08;;;1.30;;
22531;SDS011;11432;46.924;7.114;2024-03-02T05:54:01;1.90;;;1.30;;
22531;SDS011;11432;46.924;7.114;2024-03-02T05:56:27;2.75;;;1.40;;
22531;SDS011;11432;46.924;7.114;2024-03-02T05:58:53;2.70;;;1.33;;
22531;SDS011;11432;46.924;7.114;2024-03-02T06:01:40;2.42;;;1.27;;
22531;SDS011;11432;46.924;7.114;2024-03-02T06:04:11;2.28;;;1.52;;
22531;SDS011;11432;46.924;7.114;2024-03-02T06:06:37;2.33;;;1.50;;
22531;SDS011;11432;46.924;7.114;2024-03-02T06:09:04;2.17;;;1.38;;
22531;SDS011;11432;46.924;7.114;2024-03-02T06:11:33;2.17;;;1.48;;
22531;SDS011;11432;46.924;7.114;2024-03-02T06:16:28;3.17;;;1.40;;
22531;SDS011;11432;46.924;7.114;2024-03-02T06:18:54;2.22;;;1.40;;
22531;SDS011;11432;46.924;7.114;2024-03-02T06:21:22;2.00;;;1.30;;
22531;SDS011;11432;46.924;7.114;2024-03-02T06:23:48;3.05;;;1.40;;
22531;SDS011;11432;46.924;7.114;2024-03-02T06:26:14;3.08;;;1.80;;
22531;SDS011;11432;46.924;7.114;2024-03-02T06:28:39;3.50;;;2.05;;
22531;SDS011;11432;46.924;7.114;2024-03-02T06:31:05;2.95;;;1.75;;
22531;SDS011;11432;46.924;7.114;2024-03-02T06:33:31;2.70;;;1.50;;
22531;SDS011;11432;46.924;7.114;2024-03-02T06:35:56;3.88;;;1.40;;
22531;SDS011;11432;46.924;7.114;2024-03-02T06:38:22;3.90;;;1.60;;
22531;SDS011;11432;46.924;7.114;2024-03-02T06:40:47;3.65;;;1.40;;
22531;SDS011;11432;46.924;7.114;2024-03-02T06:43:13;2.60;;;1.27;;
22531;SDS011;11432;46.924;7.114;2024-03-02T06:45:38;2.08;;;1.25;;
22531;SDS011;11432;46.924;7.114;2024-03-02T06:48:04;2.33;;;1.35;;
22531;SDS011;11432;46.924;7.114;2024-03-02T06:50:30;1.80;;;1.27;;
22531;SDS011;11432;46.924;7.114;2024-03-02T06:52:56;2.47;;;1.38;;
22531;SDS011;11432;46.924;7.114;2024-03-02T06:55:23;2.17;;;1.27;;
22531;SDS011;11432;46.924;7.114;2024-03-02T06:57:52;3.92;;;1.65;;
22531;SDS011;11432;46.924;7.114;2024-03-02T07:00:18;2.95;;;1.58;;
22531;SDS011;11432;46.924;7.114;2024-03-02T07:02:45;2.67;;;1.55;;
22531;SDS011;11432;46.924;7.114;2024-03-02T07:05:11;2.55;;;1.58;;
22531;SDS011;11432;46.924;7.114;2024-03-02T07:07:37;2.83;;;1.48;;
22531;SDS011;11432;46.924;7.114;2024-03-02T07:10:03;1.85;;;1.40;;
22531;SDS011;11432;46.924;7.114;2024-03-02T07:12:30;2.13;;;1.20;;
22531;SDS011;11432;46.924;7.114;2024-03-02T07:14:56;3.20;;;1.30;;
22531;SDS011;11432;46.924;7.114;2024-03-02T07:17:28;3.55;;;1.50;;
22531;SDS011;11432;46.924;7.114;2024-03-02T07:19:54;2.50;;;1.20;;
22531;SDS011;11432;46.924;7.114;2024-03-02T07:22:20;3.17;;;1.27;;
22531;SDS011;11432;46.924;7.114;2024-03-02T07:24:45;2.15;;;1.35;;
22531;SDS011;11432;46.924;7.114;2024-03-02T07:27:11;3.30;;;1.40;;
22531;SDS011;11432;46.924;7.114;2024-03-02T07:29:38;3.15;;;1.38;;
22531;SDS011;11432;46.924;7.114;2024-03-02T07:32:05;1.88;;;1.17;;
22531;SDS011;11432;46.924;7.114;2024-03-02T07:34:31;2.30;;;1.27;;
22531;SDS011;11432;46.924;7.114;2024-03-02T07:36:57;3.22;;;1.35;;
22531;SDS011;11432;46.924;7.114;2024-03-02T07:39:23;2.05;;;1.10;;
22531;SDS011;11432;46.924;7.114;2024-03-02T07:41:49;3.80;;;1.45;;
22531;SDS011;11432;46.924;7.114;2024-03-02T07:44:15;1.60;;;1.00;;
22531;SDS011;11432;46.924;7.114;2024-03-02T07:46:41;2.33;;;1.38;;
22531;SDS011;11432;46.924;7.114;2024-03-02T07:49:08;1.90;;;1.02;;
22531;SDS011;11432;46.924;7.114;2024-03-02T07:51:34;3.40;;;1.25;;
22531;SDS011;11432;46.924;7.114;2024-03-02T07:53:59;3.38;;;1.00;;
22531;SDS011;11432;46.924;7.114;2024-03-02T07:56:25;2.53;;;1.10;;
22531;SDS011;11432;46.924;7.114;2024-03-02T07:58:51;3.40;;;1.00;;
22531;SDS011;11432;46.924;7.114;2024-03-02T08:01:17;2.83;;;1.10;;
22531;SDS011;11432;46.924;7.114;2024-03-02T08:03:43;2.67;;;1.00;;
22531;SDS011;11432;46.924;7.114;2024-03-02T08:06:16;1.85;;;1.02;;
22531;SDS011;11432;46.924;7.114;2024-03-02T08:08:45;2.30;;;1.25;;
22531;SDS011;11432;46.924;7.114;2024-03-02T08:11:11;2.20;;;1.17;;
22531;SDS011;11432;46.924;7.114;2024-03-02T08:13:37;1.30;;;1.10;;
22531;SDS011;11432;46.924;7.114;2024-03-02T08:16:03;1.50;;;1.15;;
22531;SDS011;11432;46.924;7.114;2024-03-02T08:18:31;1.98;;;1.30;;
22531;SDS011;11432;46.924;7.114;2024-03-02T08:20:57;2.58;;;1.20;;
22531;SDS011;11432;46.924;7.114;2024-03-02T08:23:23;2.60;;;1.38;;
22531;SDS011;11432;46.924;7.114;2024-03-02T08:25:48;2.45;;;1.67;;
22531;SDS011;11432;46.924;7.114;2024-03-02T08:28:14;3.80;;;1.42;;
22531;SDS011;11432;46.924;7.114;2024-03-02T08:30:40;3.20;;;1.58;;
22531;SDS011;11432;46.924;7.114;2024-03-02T08:33:05;2.67;;;1.80;;
22531;SDS011;11432;46.924;7.114;2024-03-02T08:35:31;2.70;;;2.00;;
22531;SDS011;11432;46.924;7.114;2024-03-02T08:38:01;1.70;;;1.52;;
22531;SDS011;11432;46.924;7.114;2024-03-02T08:40:27;2.33;;;1.75;;
22531;SDS011;11432;46.924;7.114;2024-03-02T08:42:53;2.38;;;1.85;;
22531;SDS011;11432;46.924;7.114;2024-03-02T08:45:19;3.10;;;1.90;;
22531;SDS011;11432;46.924;7.114;2024-03-02T08:47:45;3.17;;;1.92;;
22531;SDS011;11432;46.924;7.114;2024-03-02T08:50:11;2.42;;;1.80;;
22531;SDS011;11432;46.924;7.114;2024-03-02T08:52:37;4.07;;;1.95;;
22531;SDS011;11432;46.924;7.114;2024-03-02T08:55:02;2.28;;;1.90;;
22531;SDS011;11432;46.924;7.114;2024-03-02T08:57:28;5.80;;;1.98;;
22531;SDS011;11432;46.924;7.114;2024-03-02T08:59:53;3.15;;;2.05;;
22531;SDS011;11432;46.924;7.114;2024-03-02T09:02:19;3.05;;;2.25;;
22531;SDS011;11432;46.924;7.114;2024-03-02T09:04:45;4.55;;;2.22;;
22531;SDS011;11432;46.924;7.114;2024-03-02T09:07:10;3.13;;;2.30;;
22531;SDS011;11432;46.924;7.114;2024-03-02T09:09:36;3.58;;;2.22;;
22531;SDS011;11432;46.924;7.114;2024-03-02T09:12:04;3.45;;;2.15;;
22531;SDS011;11432;46.924;7.114;2024-03-02T09:14:30;2.78;;;1.90;;
22531;SDS011;11432;46.924;7.114;2024-03-02T09:16:56;3.17;;;2.30;;
22531;SDS011;11432;46.924;7.114;2024-03-02T09:19:22;3.20;;;1.95;;
22531;SDS011;11432;46.924;7.114;2024-03-02T09:21:47;2.88;;;1.95;;
22531;SDS011;11432;46.924;7.114;2024-03-02T09:24:13;5.38;;;2.35;;
22531;SDS011;11432;46.924;7.114;2024-03-02T09:26:38;3.17;;;2.47;;
22531;SDS011;11432;46.924;7.114;2024-03-02T09:29:04;3.75;;;2.60;;
22531;SDS011;11432;46.924;7.114;2024-03-02T09:31:29;3.08;;;2.47;;
22531;SDS011;11432;46.924;7.114;2024-03-02T09:33:55;3.70;;;2.92;;
22531;SDS011;11432;46.924;7.114;2024-03-02T09:36:21;4.57;;;2.50;;
22531;SDS011;11432;46.924;7.114;2024-03-02T09:38:47;3.33;;;2.60;;
22531;SDS011;11432;46.924;7.114;2024-03-02T09:41:16;3.03;;;2.15;;
22531;SDS011;11432;46.924;7.114;2024-03-02T09:43:42;4.03;;;2.47;;
22531;SDS011;11432;46.924;7.114;2024-03-02T09:46:08;2.92;;;2.30;;
22531;SDS011;11432;46.924;7.114;2024-03-02T09:48:35;4.45;;;2.70;;
22531;SDS011;11432;46.924;7.114;2024-03-02T09:51:01;8.07;;;4.60;;
22531;SDS011;11432;46.924;7.114;2024-03-02T09:53:31;5.07;;;3.13;;
22531;SDS011;11432;46.924;7.114;2024-03-02T09:55:58;5.13;;;3.10;;
22531;SDS011;11432;46.924;7.114;2024-03-02T09:58:24;5.13;;;3.42;;
22531;SDS011;11432;46.924;7.114;2024-03-02T10:00:50;3.38;;;2.50;;
22531;SDS011;11432;46.924;7.114;2024-03-02T10:03:15;4.63;;;2.97;;
22531;SDS011;11432;46.924;7.114;2024-03-02T10:05:44;8.20;;;3.58;;
22531;SDS011;11432;46.924;7.114;2024-03-02T10:08:09;4.32;;;2.92;;
22531;SDS011;11432;46.924;7.114;2024-03-02T10:10:36;5.35;;;3.20;;
22531;SDS011;11432;46.924;7.114;2024-03-02T10:13:06;5.18;;;3.80;;
22531;SDS011;11432;46.924;7.114;2024-03-02T10:15:33;4.00;;;2.40;;
22531;SDS011;11432;46.924;7.114;2024-03-02T10:17:59;3.78;;;2.63;;
22531;SDS011;11432;46.924;7.114;2024-03-02T10:20:25;5.90;;;3.45;;
22531;SDS011;11432;46.924;7.114;2024-03-02T10:22:51;6.68;;;3.20;;
22531;SDS011;11432;46.924;7.114;2024-03-02T10:25:38;5.78;;;3.88;;
22531;SDS011;11432;46.924;7.114;2024-03-02T10:28:03;4.82;;;3.53;;
22531;SDS011;11432;46.924;7.114;2024-03-02T10:30:31;7.22;;;4.00;;
22531;SDS011;11432;46.924;7.114;2024-03-02T10:32:57;5.88;;;4.10;;
22531;SDS011;11432;46.924;7.114;2024-03-02T10:35:22;9.52;;;4.65;;
22531;SDS011;11432;46.924;7.114;2024-03-02T10:37:49;7.97;;;4.93;;
22531;SDS011;11432;46.924;7.114;2024-03-02T10:40:15;4.78;;;3.40;;
22531;SDS011;11432;46.924;7.114;2024-03-02T10:42:41;6.65;;;3.70;;
22531;SDS011;11432;46.924;7.114;2024-03-02T10:45:09;5.35;;;3.25;;
22531;SDS011;11432;46.924;7.114;2024-03-02T10:47:38;3.50;;;2.97;;
22531;SDS011;11432;46.924;7.114;2024-03-02T10:50:06;5.28;;;3.50;;
22531;SDS011;11432;46.924;7.114;2024-03-02T10:52:35;4.05;;;2.72;;
22531;SDS011;11432;46.924;7.114;2024-03-02T10:55:01;6.10;;;3.20;;
22531;SDS011;11432;46.924;7.114;2024-03-02T10:57:31;4.00;;;2.58;;
22531;SDS011;11432;46.924;7.114;2024-03-02T11:00:04;3.83;;;2.15;;
22531;SDS011;11432;46.924;7.114;2024-03-02T11:02:37;4.30;;;2.70;;
22531;SDS011;11432;46.924;7.114;2024-03-02T11:05:04;3.88;;;2.55;;
22531;SDS011;11432;46.924;7.114;2024-03-02T11:07:33;4.25;;;2.20;;
22531;SDS011;11432;46.924;7.114;2024-03-02T11:10:00;3.00;;;2.47;;
22531;SDS011;11432;46.924;7.114;2024-03-02T11:12:36;3.38;;;2.42;;
22531;SDS011;11432;46.924;7.114;2024-03-02T11:15:10;3.90;;;2.15;;
22531;SDS011;11432;46.924;7.114;2024-03-02T11:17:37;4.50;;;2.47;;
22531;SDS011;11432;46.924;7.114;2024-03-02T11:20:05;3.60;;;2.50;;
22531;SDS011;11432;46.924;7.114;2024-03-02T11:22:34;3.47;;;2.22;;
22531;SDS011;11432;46.924;7.114;2024-03-02T11:25:01;4.65;;;2.30;;
22531;SDS011;11432;46.924;7.114;2024-03-02T11:30:38;2.75;;;2.03;;
22531;SDS011;11432;46.924;7.114;2024-03-02T11:32:59;3.17;;;2.03;;
22531;SDS011;11432;46.924;7.114;2024-03-02T11:35:25;3.60;;;2.60;;
22531;SDS011;11432;46.924;7.114;2024-03-02T11:37:53;3.87;;;2.20;;
22531;SDS011;11432;46.924;7.114;2024-03-02T11:40:23;2.40;;;1.48;;
22531;SDS011;11432;46.924;7.114;2024-03-02T11:42:50;2.85;;;1.80;;
22531;SDS011;11432;46.924;7.114;2024-03-02T11:45:16;2.95;;;2.00;;
22531;SDS011;11432;46.924;7.114;2024-03-02T11:47:46;3.80;;;1.77;;
22531;SDS011;11432;46.924;7.114;2024-03-02T11:50:15;3.20;;;2.05;;
22531;SDS011;11432;46.924;7.114;2024-03-02T11:52:53;3.38;;;1.80;;
22531;SDS011;11432;46.924;7.114;2024-03-02T11:55:21;3.25;;;1.70;;
22531;SDS011;11432;46.924;7.114;2024-03-02T11:57:47;3.70;;;1.75;;
22531;SDS011;11432;46.924;7.114;2024-03-02T12:00:18;2.53;;;1.65;;
22531;SDS011;11432;46.924;7.114;2024-03-02T12:02:44;2.42;;;1.63;;
22531;SDS011;11432;46.924;7.114;2024-03-02T12:05:14;2.80;;;1.90;;
22531;SDS011;11432;46.924;7.114;2024-03-02T12:07:41;3.80;;;1.75;;
22531;SDS011;11432;46.924;7.114;2024-03-02T12:10:08;2.38;;;1.58;;
22531;SDS011;11432;46.924;7.114;2024-03-02T12:12:34;3.70;;;1.88;;
22531;SDS011;11432;46.924;7.114;2024-03-02T12:15:00;1.92;;;1.48;;
22531;SDS011;11432;46.924;7.114;2024-03-02T12:17:28;2.33;;;1.50;;
22531;SDS011;11432;46.924;7.114;2024-03-02T12:19:54;2.15;;;1.30;;
22531;SDS011;11432;46.924;7.114;2024-03-02T12:22:19;1.90;;;1.42;;
22531;SDS011;11432;46.924;7.114;2024-03-02T12:24:46;2.13;;;1.45;;
22531;SDS011;11432;46.924;7.114;2024-03-02T12:27:12;1.75;;;1.30;;
22531;SDS011;11432;46.924;7.114;2024-03-02T12:29:40;2.40;;;1.60;;
22531;SDS011;11432;46.924;7.114;2024-03-02T12:32:06;2.55;;;1.60;;
22531;SDS011;11432;46.924;7.114;2024-03-02T12:34:33;3.30;;;1.50;;
22531;SDS011;11432;46.924;7.114;2024-03-02T12:36:59;3.00;;;1.80;;
22531;SDS011;11432;46.924;7.114;2024-03-02T12:39:24;2.55;;;1.50;;
22531;SDS011;11432;46.924;7.114;2024-03-02T12:41:50;3.10;;;1.50;;
22531;SDS011;11432;46.924;7.114;2024-03-02T12:44:19;1.90;;;1.38;;
22531;SDS011;11432;46.924;7.114;2024-03-02T12:46:45;2.33;;;1.30;;
22531;SDS011;11432;46.924;7.114;2024-03-02T12:49:12;2.00;;;1.40;;
22531;SDS011;11432;46.924;7.114;2024-03-02T12:51:41;2.72;;;1.50;;
22531;SDS011;11432;46.924;7.114;2024-03-02T12:54:10;1.83;;;1.27;;
22531;SDS011;11432;46.924;7.114;2024-03-02T12:56:36;2.08;;;1.02;;
22531;SDS011;11432;46.924;7.114;2024-03-02T12:59:03;3.60;;;1.65;;
22531;SDS011;11432;46.924;7.114;2024-03-02T13:01:29;4.25;;;1.42;;
22531;SDS011;11432;46.924;7.114;2024-03-02T13:03:56;2.33;;;1.40;;
22531;SDS011;11432;46.924;7.114;2024-03-02T13:06:23;3.15;;;1.52;;
22531;SDS011;11432;46.924;7.114;2024-03-02T13:08:52;3.08;;;1.60;;
22531;SDS011;11432;46.924;7.114;2024-03-02T13:11:17;3.05;;;2.08;;
22531;SDS011;11432;46.924;7.114;2024-03-02T13:13:44;2.30;;;1.80;;
22531;SDS011;11432;46.924;7.114;2024-03-02T13:16:10;4.25;;;2.60;;
22531;SDS011;11432;46.924;7.114;2024-03-02T13:18:38;2.67;;;1.85;;
22531;SDS011;11432;46.924;7.114;2024-03-02T13:21:05;3.17;;;2.20;;
22531;SDS011;11432;46.924;7.114;2024-03-02T13:23:31;3.90;;;1.63;;
22531;SDS011;11432;46.924;7.114;2024-03-02T13:25:57;2.95;;;1.92;;
22531;SDS011;11432;46.924;7.114;2024-03-02T13:28:23;2.75;;;1.75;;
22531;SDS011;11432;46.924;7.114;2024-03-02T13:30:50;2.90;;;2.08;;
22531;SDS011;11432;46.924;7.114;2024-03-02T13:33:15;2.95;;;1.83;;
22531;SDS011;11432;46.924;7.114;2024-03-02T13:35:44;5.25;;;1.80;;
22531;SDS011;11432;46.924;7.114;2024-03-02T13:38:10;2.47;;;1.85;;
22531;SDS011;11432;46.924;7.114;2024-03-02T13:40:35;2.80;;;1.38;;
22531;SDS011;11432;46.924;7.114;2024-03-02T13:43:02;2.80;;;1.63;;
22531;SDS011;11432;46.924;7.114;2024-03-02T13:45:27;2.88;;;1.67;;
22531;SDS011;11432;46.924;7.114;2024-03-02T13:47:53;6.10;;;2.10;;
22531;SDS011;11432;46.924;7.114;2024-03-02T13:50:19;2.90;;;2.00;;
22531;SDS011;11432;46.924;7.114;2024-03-02T13:52:45;2.00;;;1.50;;
22531;SDS011;11432;46.924;7.114;2024-03-02T13:55:10;3.97;;;1.70;;
22531;SDS011;11432;46.924;7.114;2024-03-02T13:57:36;4.35;;;1.95;;
22531;SDS011;11432;46.924;7.114;2024-03-02T14:00:02;4.28;;;1.30;;
22531;SDS011;11432;46.924;7.114;2024-03-02T14:02:28;4.15;;;1.88;;
22531;SDS011;11432;46.924;7.114;2024-03-02T14:04:54;3.35;;;1.80;;
22531;SDS011;11432;46.924;7.114;2024-03-02T14:07:20;2.22;;;1.40;;
22531;SDS011;11432;46.924;7.114;2024-03-02T14:09:45;2.47;;;1.60;;
22531;SDS011;11432;46.924;7.114;2024-03-02T14:12:11;3.28;;;1.80;;
22531;SDS011;11432;46.924;7.114;2024-03-02T14:14:38;2.17;;;1.50;;
22531;SDS011;11432;46.924;7.114;2024-03-02T14:17:04;2.17;;;1.30;;
22531;SDS011;11432;46.924;7.114;2024-03-02T14:19:31;3.22;;;1.52;;
22531;SDS011;11432;46.924;7.114;2024-03-02T14:21:57;2.85;;;1.60;;
22531;SDS011;11432;46.924;7.114;2024-03-02T14:24:23;2.50;;;1.40;;
22531;SDS011;11432;46.924;7.114;2024-03-02T14:26:50;2.17;;;1.40;;
22531;SDS011;11432;46.924;7.114;2024-03-02T14:29:16;2.13;;;1.50;;
22531;SDS011;11432;46.924;7.114;2024-03-02T14:31:43;2.65;;;1.50;;
22531;SDS011;11432;46.924;7.114;2024-03-02T14:34:09;2.50;;;1.60;;
22531;SDS011;11432;46.924;7.114;2024-03-02T14:36:34;2.25;;;1.40;;
22531;SDS011;11432;46.924;7.114;2024-03-02T14:39:00;2.60;;;1.60;;
22531;SDS011;11432;46.924;7.114;2024-03-02T14:41:26;4.18;;;1.40;;
22531;SDS011;11432;46.924;7.114;2024-03-02T14:43:51;2.47;;;1.30;;
22531;SDS011;11432;46.924;7.114;2024-03-02T14:46:17;3.85;;;1.77;;
22531;SDS011;11432;46.924;7.114;2024-03-02T14:48:44;2.75;;;1.63;;
22531;SDS011;11432;46.924;7.114;2024-03-02T14:51:11;2.50;;;1.60;;
22531;SDS011;11432;46.924;7.114;2024-03-02T14:53:36;4.05;;;1.50;;
22531;SDS011;11432;46.924;7.114;2024-03-02T14:56:03;2.75;;;1.60;;